sensor_id;sensor_type;location;lat;lon;timestamp;P1;durP1;ratioP1;P2;durP2;ratioP2
62933;SDS011;49038;47.600;19.242;2022-11-09T00:02:09;9.68;;;4.68;;
62933;SDS011;49038;47.600;19.242;2022-11-09T00:05:11;17.80;;;5.65;;
62933;SDS011;49038;47.600;19.242;2022-11-09T00:08:14;13.95;;;4.57;;
62933;SDS011;49038;47.600;19.242;2022-11-09T00:11:16;11.50;;;4.95;;
62933;SDS011;49038;47.600;19.242;2022-11-09T00:14:18;11.55;;;4.55;;
62933;SDS011;49038;47.600;19.242;2022-11-09T00:17:21;7.93;;;4.55;;
62933;SDS011;49038;47.600;19.242;2022-11-09T00:20:23;10.73;;;5.07;;
62933;SDS011;49038;47.600;19.242;2022-11-09T00:23:25;8.15;;;5.00;;
62933;SDS011;49038;47.600;19.242;2022-11-09T00:26:27;12.43;;;4.93;;
62933;SDS011;49038;47.600;19.242;2022-11-09T00:29:30;9.18;;;5.40;;
62933;SDS011;49038;47.600;19.242;2022-11-09T00:32:32;8.48;;;4.65;;
62933;SDS011;49038;47.600;19.242;2022-11-09T00:35:36;9.57;;;4.68;;
62933;SDS011;49038;47.600;19.242;2022-11-09T00:38:39;9.50;;;4.22;;
62933;SDS011;49038;47.600;19.242;2022-11-09T00:41:41;10.13;;;4.95;;
62933;SDS011;49038;47.600;19.242;2022-11-09T00:44:44;14.15;;;4.80;;
62933;SDS011;49038;47.600;19.242;2022-11-09T00:47:46;6.97;;;4.50;;
62933;SDS011;49038;47.600;19.242;2022-11-09T00:50:51;9.55;;;4.00;;
62933;SDS011;49038;47.600;19.242;2022-11-09T00:53:55;8.55;;;4.80;;
62933;SDS011;49038;47.600;19.242;2022-11-09T00:56:58;9.52;;;5.03;;
62933;SDS011;49038;47.600;19.242;2022-11-09T01:00:00;6.22;;;3.95;;
62933;SDS011;49038;47.600;19.242;2022-11-09T01:03:02;10.30;;;4.22;;
62933;SDS011;49038;47.600;19.242;2022-11-09T01:06:05;9.38;;;3.70;;
62933;SDS011;49038;47.600;19.242;2022-11-09T01:09:08;6.10;;;4.15;;
62933;SDS011;49038;47.600;19.242;2022-11-09T01:12:10;8.18;;;3.85;;
62933;SDS011;49038;47.600;19.242;2022-11-09T01:15:12;8.05;;;4.35;;
62933;SDS011;49038;47.600;19.242;2022-11-09T01:18:15;11.45;;;4.97;;
62933;SDS011;49038;47.600;19.242;2022-11-09T01:21:18;8.63;;;4.53;;
62933;SDS011;49038;47.600;19.242;2022-11-09T01:24:20;13.80;;;4.43;;
62933;SDS011;49038;47.600;19.242;2022-11-09T01:27:22;9.55;;;4.35;;
62933;SDS011;49038;47.600;19.242;2022-11-09T01:30:25;8.98;;;4.10;;
62933;SDS011;49038;47.600;19.242;2022-11-09T01:33:27;10.93;;;4.30;;
62933;SDS011;49038;47.600;19.242;2022-11-09T01:36:29;13.50;;;4.85;;
62933;SDS011;49038;47.600;19.242;2022-11-09T01:39:31;9.02;;;4.47;;
62933;SDS011;49038;47.600;19.242;2022-11-09T01:42:34;9.25;;;4.78;;
62933;SDS011;49038;47.600;19.242;2022-11-09T01:45:37;15.43;;;4.70;;
62933;SDS011;49038;47.600;19.242;2022-11-09T01:48:45;7.62;;;3.70;;
62933;SDS011;49038;47.600;19.242;2022-11-09T01:51:58;14.65;;;5.15;;
62933;SDS011;49038;47.600;19.242;2022-11-09T01:55:05;7.22;;;4.07;;
62933;SDS011;49038;47.600;19.242;2022-11-09T01:58:11;6.62;;;3.60;;
62933;SDS011;49038;47.600;19.242;2022-11-09T02:01:19;7.55;;;4.93;;
62933;SDS011;49038;47.600;19.242;2022-11-09T02:04:22;6.25;;;3.20;;
62933;SDS011;49038;47.600;19.242;2022-11-09T02:07:26;6.20;;;3.42;;
62933;SDS011;49038;47.600;19.242;2022-11-09T02:10:49;5.65;;;4.03;;
62933;SDS011;49038;47.600;19.242;2022-11-09T02:14:05;9.52;;;4.10;;
62933;SDS011;49038;47.600;19.242;2022-11-09T02:17:09;9.85;;;4.72;;
62933;SDS011;49038;47.600;19.242;2022-11-09T02:20:12;11.23;;;4.72;;
62933;SDS011;49038;47.600;19.242;2022-11-09T02:23:15;10.90;;;4.57;;
62933;SDS011;49038;47.600;19.242;2022-11-09T02:26:23;8.90;;;3.67;;
62933;SDS011;49038;47.600;19.242;2022-11-09T02:29:30;10.63;;;4.70;;
62933;SDS011;49038;47.600;19.242;2022-11-09T02:32:34;6.75;;;3.47;;
62933;SDS011;49038;47.600;19.242;2022-11-09T02:35:37;9.02;;;4.25;;
62933;SDS011;49038;47.600;19.242;2022-11-09T02:38:39;6.62;;;3.80;;
62933;SDS011;49038;47.600;19.242;2022-11-09T02:41:42;6.78;;;3.58;;
62933;SDS011;49038;47.600;19.242;2022-11-09T02:44:48;11.88;;;5.30;;
62933;SDS011;49038;47.600;19.242;2022-11-09T02:47:54;7.75;;;3.40;;
62933;SDS011;49038;47.600;19.242;2022-11-09T02:50:56;7.85;;;3.60;;
62933;SDS011;49038;47.600;19.242;2022-11-09T02:53:58;7.00;;;3.42;;
62933;SDS011;49038;47.600;19.242;2022-11-09T02:57:00;10.68;;;3.78;;
62933;SDS011;49038;47.600;19.242;2022-11-09T03:00:03;5.85;;;3.42;;
62933;SDS011;49038;47.600;19.242;2022-11-09T03:03:06;9.75;;;4.12;;
62933;SDS011;49038;47.600;19.242;2022-11-09T03:06:09;6.72;;;3.37;;
62933;SDS011;49038;47.600;19.242;2022-11-09T03:09:11;7.25;;;3.53;;
62933;SDS011;49038;47.600;19.242;2022-11-09T03:12:13;10.30;;;3.97;;
62933;SDS011;49038;47.600;19.242;2022-11-09T03:15:31;7.87;;;3.55;;
62933;SDS011;49038;47.600;19.242;2022-11-09T03:18:34;6.07;;;3.00;;
62933;SDS011;49038;47.600;19.242;2022-11-09T03:21:36;7.05;;;3.40;;
62933;SDS011;49038;47.600;19.242;2022-11-09T03:24:38;6.68;;;3.45;;
62933;SDS011;49038;47.600;19.242;2022-11-09T03:27:40;6.03;;;3.65;;
62933;SDS011;49038;47.600;19.242;2022-11-09T03:30:43;6.20;;;2.92;;
62933;SDS011;49038;47.600;19.242;2022-11-09T03:33:45;6.75;;;3.58;;
62933;SDS011;49038;47.600;19.242;2022-11-09T03:36:47;7.45;;;3.47;;
62933;SDS011;49038;47.600;19.242;2022-11-09T03:39:49;6.50;;;3.65;;
62933;SDS011;49038;47.600;19.242;2022-11-09T03:42:52;8.50;;;3.37;;
62933;SDS011;49038;47.600;19.242;2022-11-09T03:45:54;7.65;;;4.20;;
62933;SDS011;49038;47.600;19.242;2022-11-09T03:48:56;9.38;;;4.40;;
62933;SDS011;49038;47.600;19.242;2022-11-09T03:51:59;6.22;;;3.47;;
62933;SDS011;49038;47.600;19.242;2022-11-09T03:55:01;6.75;;;3.90;;
62933;SDS011;49038;47.600;19.242;2022-11-09T03:58:04;5.95;;;3.00;;
62933;SDS011;49038;47.600;19.242;2022-11-09T04:01:07;7.32;;;3.53;;
62933;SDS011;49038;47.600;19.242;2022-11-09T04:04:11;10.68;;;4.45;;
62933;SDS011;49038;47.600;19.242;2022-11-09T04:07:13;4.97;;;3.17;;
62933;SDS011;49038;47.600;19.242;2022-11-09T04:10:16;8.32;;;3.60;;
62933;SDS011;49038;47.600;19.242;2022-11-09T04:13:19;5.18;;;3.10;;
62933;SDS011;49038;47.600;19.242;2022-11-09T04:16:22;5.45;;;3.03;;
62933;SDS011;49038;47.600;19.242;2022-11-09T04:19:24;4.57;;;2.97;;
62933;SDS011;49038;47.600;19.242;2022-11-09T04:22:27;8.93;;;4.28;;
62933;SDS011;49038;47.600;19.242;2022-11-09T04:25:33;7.87;;;3.72;;
62933;SDS011;49038;47.600;19.242;2022-11-09T04:28:37;5.57;;;2.90;;
62933;SDS011;49038;47.600;19.242;2022-11-09T04:31:39;7.20;;;3.17;;
62933;SDS011;49038;47.600;19.242;2022-11-09T04:34:41;8.48;;;3.85;;
62933;SDS011;49038;47.600;19.242;2022-11-09T04:37:51;4.03;;;2.55;;
62933;SDS011;49038;47.600;19.242;2022-11-09T04:41:01;6.00;;;3.58;;
62933;SDS011;49038;47.600;19.242;2022-11-09T04:44:04;5.85;;;2.90;;
62933;SDS011;49038;47.600;19.242;2022-11-09T04:47:07;7.40;;;3.35;;
62933;SDS011;49038;47.600;19.242;2022-11-09T04:50:09;6.97;;;3.65;;
62933;SDS011;49038;47.600;19.242;2022-11-09T04:53:12;7.72;;;3.75;;
62933;SDS011;49038;47.600;19.242;2022-11-09T04:56:16;6.12;;;3.87;;
62933;SDS011;49038;47.600;19.242;2022-11-09T04:59:18;6.15;;;3.80;;
62933;SDS011;49038;47.600;19.242;2022-11-09T05:02:20;6.53;;;3.92;;
62933;SDS011;49038;47.600;19.242;2022-11-09T05:05:23;6.37;;;3.50;;
62933;SDS011;49038;47.600;19.242;2022-11-09T05:08:25;7.20;;;3.65;;
62933;SDS011;49038;47.600;19.242;2022-11-09T05:11:27;10.65;;;4.60;;
62933;SDS011;49038;47.600;19.242;2022-11-09T05:14:30;7.60;;;4.43;;
62933;SDS011;49038;47.600;19.242;2022-11-09T05:17:32;11.35;;;4.28;;
62933;SDS011;49038;47.600;19.242;2022-11-09T05:20:34;8.55;;;3.92;;
62933;SDS011;49038;47.600;19.242;2022-11-09T05:23:37;7.12;;;3.75;;
62933;SDS011;49038;47.600;19.242;2022-11-09T05:26:58;7.47;;;3.83;;
62933;SDS011;49038;47.600;19.242;2022-11-09T05:30:00;6.50;;;3.60;;
62933;SDS011;49038;47.600;19.242;2022-11-09T05:33:02;7.35;;;3.90;;
62933;SDS011;49038;47.600;19.242;2022-11-09T05:36:04;9.27;;;4.20;;
62933;SDS011;49038;47.600;19.242;2022-11-09T05:39:07;8.52;;;3.03;;
62933;SDS011;49038;47.600;19.242;2022-11-09T05:42:09;2.55;;;2.10;;
62933;SDS011;49038;47.600;19.242;2022-11-09T05:45:15;5.78;;;3.72;;
62933;SDS011;49038;47.600;19.242;2022-11-09T05:48:38;5.85;;;2.87;;
62933;SDS011;49038;47.600;19.242;2022-11-09T05:51:41;8.30;;;4.18;;
62933;SDS011;49038;47.600;19.242;2022-11-09T05:54:43;6.28;;;3.30;;
62933;SDS011;49038;47.600;19.242;2022-11-09T05:57:45;23.83;;;6.60;;
62933;SDS011;49038;47.600;19.242;2022-11-09T06:00:47;11.05;;;4.65;;
62933;SDS011;49038;47.600;19.242;2022-11-09T06:03:52;7.30;;;4.37;;
62933;SDS011;49038;47.600;19.242;2022-11-09T06:06:54;9.00;;;4.68;;
62933;SDS011;49038;47.600;19.242;2022-11-09T06:09:57;10.10;;;4.15;;
62933;SDS011;49038;47.600;19.242;2022-11-09T06:12:59;5.78;;;3.60;;
62933;SDS011;49038;47.600;19.242;2022-11-09T06:16:02;21.52;;;3.80;;
62933;SDS011;49038;47.600;19.242;2022-11-09T06:19:06;5.57;;;3.25;;
62933;SDS011;49038;47.600;19.242;2022-11-09T06:22:08;10.70;;;4.40;;
62933;SDS011;49038;47.600;19.242;2022-11-09T06:25:11;8.20;;;4.12;;
62933;SDS011;49038;47.600;19.242;2022-11-09T06:28:13;8.13;;;4.10;;
62933;SDS011;49038;47.600;19.242;2022-11-09T06:31:15;10.23;;;4.93;;
62933;SDS011;49038;47.600;19.242;2022-11-09T06:34:18;7.37;;;3.25;;
62933;SDS011;49038;47.600;19.242;2022-11-09T06:37:21;10.00;;;4.25;;
62933;SDS011;49038;47.600;19.242;2022-11-09T06:40:23;11.18;;;4.18;;
62933;SDS011;49038;47.600;19.242;2022-11-09T06:43:25;11.63;;;5.20;;
62933;SDS011;49038;47.600;19.242;2022-11-09T06:46:28;6.45;;;3.53;;
62933;SDS011;49038;47.600;19.242;2022-11-09T06:49:30;7.03;;;3.62;;
62933;SDS011;49038;47.600;19.242;2022-11-09T06:52:32;11.73;;;4.43;;
62933;SDS011;49038;47.600;19.242;2022-11-09T06:55:35;9.73;;;4.05;;
62933;SDS011;49038;47.600;19.242;2022-11-09T06:58:37;10.55;;;3.80;;
62933;SDS011;49038;47.600;19.242;2022-11-09T07:01:40;8.35;;;5.30;;
62933;SDS011;49038;47.600;19.242;2022-11-09T07:04:42;11.18;;;4.35;;
62933;SDS011;49038;47.600;19.242;2022-11-09T07:07:44;15.02;;;4.47;;
62933;SDS011;49038;47.600;19.242;2022-11-09T07:10:47;8.32;;;4.15;;
62933;SDS011;49038;47.600;19.242;2022-11-09T07:13:49;12.48;;;4.95;;
62933;SDS011;49038;47.600;19.242;2022-11-09T07:16:58;8.70;;;4.28;;
62933;SDS011;49038;47.600;19.242;2022-11-09T07:20:00;11.95;;;4.72;;
62933;SDS011;49038;47.600;19.242;2022-11-09T07:23:02;5.85;;;4.15;;
62933;SDS011;49038;47.600;19.242;2022-11-09T07:26:04;9.93;;;5.35;;
62933;SDS011;49038;47.600;19.242;2022-11-09T07:29:07;9.75;;;4.22;;
62933;SDS011;49038;47.600;19.242;2022-11-09T07:32:09;7.70;;;3.20;;
62933;SDS011;49038;47.600;19.242;2022-11-09T07:35:11;9.40;;;4.57;;
62933;SDS011;49038;47.600;19.242;2022-11-09T07:38:13;12.23;;;5.53;;
62933;SDS011;49038;47.600;19.242;2022-11-09T07:41:20;11.75;;;4.93;;
62933;SDS011;49038;47.600;19.242;2022-11-09T07:44:23;15.50;;;5.20;;
62933;SDS011;49038;47.600;19.242;2022-11-09T07:47:27;11.15;;;4.43;;
62933;SDS011;49038;47.600;19.242;2022-11-09T07:50:29;9.35;;;4.95;;
62933;SDS011;49038;47.600;19.242;2022-11-09T07:53:32;11.38;;;5.25;;
62933;SDS011;49038;47.600;19.242;2022-11-09T07:56:34;10.57;;;5.07;;
62933;SDS011;49038;47.600;19.242;2022-11-09T07:59:37;12.18;;;5.05;;
62933;SDS011;49038;47.600;19.242;2022-11-09T08:02:40;13.82;;;4.65;;
62933;SDS011;49038;47.600;19.242;2022-11-09T08:05:42;12.07;;;5.32;;
62933;SDS011;49038;47.600;19.242;2022-11-09T08:08:45;11.40;;;5.32;;
62933;SDS011;49038;47.600;19.242;2022-11-09T08:11:47;8.85;;;4.22;;
62933;SDS011;49038;47.600;19.242;2022-11-09T08:14:49;8.43;;;4.20;;
62933;SDS011;49038;47.600;19.242;2022-11-09T08:17:51;9.20;;;5.35;;
62933;SDS011;49038;47.600;19.242;2022-11-09T08:20:54;16.90;;;5.62;;
62933;SDS011;49038;47.600;19.242;2022-11-09T08:23:56;9.52;;;4.62;;
62933;SDS011;49038;47.600;19.242;2022-11-09T08:26:58;10.45;;;4.82;;
62933;SDS011;49038;47.600;19.242;2022-11-09T08:30:00;12.63;;;5.32;;
62933;SDS011;49038;47.600;19.242;2022-11-09T08:33:02;13.30;;;4.87;;
62933;SDS011;49038;47.600;19.242;2022-11-09T08:36:12;20.00;;;5.25;;
62933;SDS011;49038;47.600;19.242;2022-11-09T08:39:16;10.48;;;4.80;;
62933;SDS011;49038;47.600;19.242;2022-11-09T08:42:19;9.68;;;4.57;;
62933;SDS011;49038;47.600;19.242;2022-11-09T08:45:21;13.70;;;4.85;;
62933;SDS011;49038;47.600;19.242;2022-11-09T08:48:23;10.40;;;4.97;;
62933;SDS011;49038;47.600;19.242;2022-11-09T08:51:25;12.45;;;5.12;;
62933;SDS011;49038;47.600;19.242;2022-11-09T08:54:28;15.52;;;5.45;;
62933;SDS011;49038;47.600;19.242;2022-11-09T08:57:30;13.13;;;5.18;;
62933;SDS011;49038;47.600;19.242;2022-11-09T09:00:32;15.15;;;5.30;;
62933;SDS011;49038;47.600;19.242;2022-11-09T09:03:34;16.95;;;5.93;;
62933;SDS011;49038;47.600;19.242;2022-11-09T09:06:37;18.90;;;5.62;;
62933;SDS011;49038;47.600;19.242;2022-11-09T09:09:39;15.00;;;5.95;;
62933;SDS011;49038;47.600;19.242;2022-11-09T09:12:41;19.23;;;6.20;;
62933;SDS011;49038;47.600;19.242;2022-11-09T09:15:43;13.23;;;4.80;;
62933;SDS011;49038;47.600;19.242;2022-11-09T09:18:46;17.00;;;6.78;;
62933;SDS011;49038;47.600;19.242;2022-11-09T09:21:49;15.32;;;6.62;;
62933;SDS011;49038;47.600;19.242;2022-11-09T09:24:51;18.05;;;7.00;;
62933;SDS011;49038;47.600;19.242;2022-11-09T09:27:54;17.15;;;5.37;;
62933;SDS011;49038;47.600;19.242;2022-11-09T09:30:57;19.08;;;7.30;;
62933;SDS011;49038;47.600;19.242;2022-11-09T09:34:00;15.88;;;5.40;;
62933;SDS011;49038;47.600;19.242;2022-11-09T09:37:02;17.62;;;6.37;;
62933;SDS011;49038;47.600;19.242;2022-11-09T09:40:05;17.85;;;6.10;;
62933;SDS011;49038;47.600;19.242;2022-11-09T09:43:16;16.15;;;7.03;;
62933;SDS011;49038;47.600;19.242;2022-11-09T09:49:27;19.45;;;6.28;;
62933;SDS011;49038;47.600;19.242;2022-11-09T09:56:19;19.42;;;6.30;;
62933;SDS011;49038;47.600;19.242;2022-11-09T09:59:28;20.37;;;6.22;;
62933;SDS011;49038;47.600;19.242;2022-11-09T10:02:42;24.12;;;7.30;;
62933;SDS011;49038;47.600;19.242;2022-11-09T10:05:53;24.48;;;7.60;;
62933;SDS011;49038;47.600;19.242;2022-11-09T10:09:14;20.55;;;6.95;;
62933;SDS011;49038;47.600;19.242;2022-11-09T10:16:47;22.00;;;7.68;;
62933;SDS011;49038;47.600;19.242;2022-11-09T10:26:32;17.70;;;7.93;;
62933;SDS011;49038;47.600;19.242;2022-11-09T10:29:53;16.17;;;7.28;;
62933;SDS011;49038;47.600;19.242;2022-11-09T10:32:58;23.75;;;7.37;;
62933;SDS011;49038;47.600;19.242;2022-11-09T10:36:19;18.35;;;7.18;;
62933;SDS011;49038;47.600;19.242;2022-11-09T10:39:25;19.48;;;6.95;;
62933;SDS011;49038;47.600;19.242;2022-11-09T10:42:30;16.85;;;7.03;;
62933;SDS011;49038;47.600;19.242;2022-11-09T10:45:36;19.65;;;6.97;;
62933;SDS011;49038;47.600;19.242;2022-11-09T10:48:40;16.20;;;7.50;;
62933;SDS011;49038;47.600;19.242;2022-11-09T10:51:43;20.15;;;7.78;;
62933;SDS011;49038;47.600;19.242;2022-11-09T10:54:48;21.25;;;8.55;;
62933;SDS011;49038;47.600;19.242;2022-11-09T10:57:58;16.67;;;6.05;;
62933;SDS011;49038;47.600;19.242;2022-11-09T11:01:12;23.58;;;8.07;;
62933;SDS011;49038;47.600;19.242;2022-11-09T11:04:22;20.75;;;7.43;;
62933;SDS011;49038;47.600;19.242;2022-11-09T11:07:25;17.00;;;7.45;;
62933;SDS011;49038;47.600;19.242;2022-11-09T11:10:28;18.87;;;7.75;;
62933;SDS011;49038;47.600;19.242;2022-11-09T11:13:30;23.15;;;8.13;;
62933;SDS011;49038;47.600;19.242;2022-11-09T11:16:33;13.57;;;6.03;;
62933;SDS011;49038;47.600;19.242;2022-11-09T11:19:37;19.02;;;7.37;;
62933;SDS011;49038;47.600;19.242;2022-11-09T11:22:41;20.05;;;7.62;;
62933;SDS011;49038;47.600;19.242;2022-11-09T11:28:58;23.98;;;8.07;;
62933;SDS011;49038;47.600;19.242;2022-11-09T11:32:02;18.17;;;7.32;;
62933;SDS011;49038;47.600;19.242;2022-11-09T11:35:05;21.27;;;8.13;;
62933;SDS011;49038;47.600;19.242;2022-11-09T11:58:02;24.02;;;8.60;;
62933;SDS011;49038;47.600;19.242;2022-11-09T12:15:22;21.52;;;8.48;;
62933;SDS011;49038;47.600;19.242;2022-11-09T12:22:14;20.45;;;8.82;;
62933;SDS011;49038;47.600;19.242;2022-11-09T12:32:21;16.83;;;8.40;;
62933;SDS011;49038;47.600;19.242;2022-11-09T12:35:35;18.87;;;7.07;;
62933;SDS011;49038;47.600;19.242;2022-11-09T12:42:07;23.30;;;8.48;;
62933;SDS011;49038;47.600;19.242;2022-11-09T12:45:26;24.83;;;8.60;;
62933;SDS011;49038;47.600;19.242;2022-11-09T12:48:32;22.27;;;8.20;;
62933;SDS011;49038;47.600;19.242;2022-11-09T12:51:36;21.77;;;9.52;;
62933;SDS011;49038;47.600;19.242;2022-11-09T12:54:39;19.33;;;8.15;;
62933;SDS011;49038;47.600;19.242;2022-11-09T12:57:45;17.67;;;8.80;;
62933;SDS011;49038;47.600;19.242;2022-11-09T13:00:49;27.00;;;9.05;;
62933;SDS011;49038;47.600;19.242;2022-11-09T13:03:55;18.87;;;8.80;;
62933;SDS011;49038;47.600;19.242;2022-11-09T13:13:29;14.32;;;7.18;;
62933;SDS011;49038;47.600;19.242;2022-11-09T13:16:33;18.87;;;9.55;;
62933;SDS011;49038;47.600;19.242;2022-11-09T13:19:57;17.40;;;8.60;;
62933;SDS011;49038;47.600;19.242;2022-11-09T13:22:59;17.05;;;7.85;;
62933;SDS011;49038;47.600;19.242;2022-11-09T13:26:14;25.12;;;9.40;;
62933;SDS011;49038;47.600;19.242;2022-11-09T13:29:24;20.88;;;8.43;;
62933;SDS011;49038;47.600;19.242;2022-11-09T13:32:28;24.25;;;9.38;;
62933;SDS011;49038;47.600;19.242;2022-11-09T13:38:42;20.20;;;8.50;;
62933;SDS011;49038;47.600;19.242;2022-11-09T13:41:44;21.15;;;8.65;;
62933;SDS011;49038;47.600;19.242;2022-11-09T13:44:46;19.67;;;9.30;;
62933;SDS011;49038;47.600;19.242;2022-11-09T13:47:49;26.92;;;10.05;;
62933;SDS011;49038;47.600;19.242;2022-11-09T13:50:52;24.00;;;8.60;;
62933;SDS011;49038;47.600;19.242;2022-11-09T13:53:58;21.52;;;8.35;;
62933;SDS011;49038;47.600;19.242;2022-11-09T13:57:02;21.75;;;7.50;;
62933;SDS011;49038;47.600;19.242;2022-11-09T14:00:17;20.17;;;8.18;;
62933;SDS011;49038;47.600;19.242;2022-11-09T14:03:25;21.37;;;8.73;;
62933;SDS011;49038;47.600;19.242;2022-11-09T14:06:28;24.10;;;8.65;;
62933;SDS011;49038;47.600;19.242;2022-11-09T14:09:35;22.40;;;8.73;;
62933;SDS011;49038;47.600;19.242;2022-11-09T14:23:14;22.02;;;9.48;;
62933;SDS011;49038;47.600;19.242;2022-11-09T14:26:19;22.67;;;9.50;;
62933;SDS011;49038;47.600;19.242;2022-11-09T14:29:23;24.30;;;8.57;;
62933;SDS011;49038;47.600;19.242;2022-11-09T14:32:28;27.02;;;9.50;;
62933;SDS011;49038;47.600;19.242;2022-11-09T14:35:36;21.77;;;9.07;;
62933;SDS011;49038;47.600;19.242;2022-11-09T14:38:43;27.85;;;10.48;;
62933;SDS011;49038;47.600;19.242;2022-11-09T14:41:47;21.20;;;8.38;;
62933;SDS011;49038;47.600;19.242;2022-11-09T14:44:50;21.50;;;8.82;;
62933;SDS011;49038;47.600;19.242;2022-11-09T14:47:54;19.30;;;7.50;;
62933;SDS011;49038;47.600;19.242;2022-11-09T14:51:02;23.30;;;7.35;;
62933;SDS011;49038;47.600;19.242;2022-11-09T14:54:06;17.62;;;7.00;;
62933;SDS011;49038;47.600;19.242;2022-11-09T14:57:15;22.52;;;8.60;;
62933;SDS011;49038;47.600;19.242;2022-11-09T15:00:41;22.15;;;9.27;;
62933;SDS011;49038;47.600;19.242;2022-11-09T15:07:15;23.60;;;8.48;;
62933;SDS011;49038;47.600;19.242;2022-11-09T15:10:19;23.40;;;8.70;;
62933;SDS011;49038;47.600;19.242;2022-11-09T15:13:26;21.12;;;8.98;;
62933;SDS011;49038;47.600;19.242;2022-11-09T15:16:32;19.33;;;7.37;;
62933;SDS011;49038;47.600;19.242;2022-11-09T15:19:38;25.40;;;9.13;;
62933;SDS011;49038;47.600;19.242;2022-11-09T15:25:59;22.92;;;8.95;;
62933;SDS011;49038;47.600;19.242;2022-11-09T15:29:02;31.23;;;10.98;;
62933;SDS011;49038;47.600;19.242;2022-11-09T15:32:31;47.65;;;17.85;;
62933;SDS011;49038;47.600;19.242;2022-11-09T15:35:35;29.45;;;11.40;;
62933;SDS011;49038;47.600;19.242;2022-11-09T15:38:41;20.92;;;9.55;;
62933;SDS011;49038;47.600;19.242;2022-11-09T15:41:44;27.55;;;13.25;;
62933;SDS011;49038;47.600;19.242;2022-11-09T15:44:51;28.10;;;9.95;;
62933;SDS011;49038;47.600;19.242;2022-11-09T15:47:54;23.33;;;9.65;;
62933;SDS011;49038;47.600;19.242;2022-11-09T15:50:57;20.05;;;9.15;;
62933;SDS011;49038;47.600;19.242;2022-11-09T15:53:59;20.00;;;8.00;;
62933;SDS011;49038;47.600;19.242;2022-11-09T15:57:02;22.17;;;9.35;;
62933;SDS011;49038;47.600;19.242;2022-11-09T16:00:05;31.25;;;8.93;;
62933;SDS011;49038;47.600;19.242;2022-11-09T16:03:16;20.73;;;8.65;;
62933;SDS011;49038;47.600;19.242;2022-11-09T16:06:18;21.75;;;9.05;;
62933;SDS011;49038;47.600;19.242;2022-11-09T16:09:23;27.17;;;10.90;;
62933;SDS011;49038;47.600;19.242;2022-11-09T16:12:25;18.67;;;8.40;;
62933;SDS011;49038;47.600;19.242;2022-11-09T16:15:28;22.13;;;9.35;;
62933;SDS011;49038;47.600;19.242;2022-11-09T16:18:31;18.70;;;7.97;;
62933;SDS011;49038;47.600;19.242;2022-11-09T16:21:34;19.92;;;9.05;;
62933;SDS011;49038;47.600;19.242;2022-11-09T16:24:36;17.08;;;8.48;;
62933;SDS011;49038;47.600;19.242;2022-11-09T16:27:39;25.45;;;9.80;;
62933;SDS011;49038;47.600;19.242;2022-11-09T16:30:51;24.92;;;10.35;;
62933;SDS011;49038;47.600;19.242;2022-11-09T16:33:53;30.25;;;11.98;;
62933;SDS011;49038;47.600;19.242;2022-11-09T16:36:56;25.33;;;11.45;;
62933;SDS011;49038;47.600;19.242;2022-11-09T16:39:59;25.52;;;9.60;;
62933;SDS011;49038;47.600;19.242;2022-11-09T16:43:02;22.23;;;9.07;;
62933;SDS011;49038;47.600;19.242;2022-11-09T16:46:05;27.33;;;10.35;;
62933;SDS011;49038;47.600;19.242;2022-11-09T16:49:07;25.08;;;9.88;;
62933;SDS011;49038;47.600;19.242;2022-11-09T16:52:10;20.17;;;8.20;;
62933;SDS011;49038;47.600;19.242;2022-11-09T16:55:12;20.27;;;8.55;;
62933;SDS011;49038;47.600;19.242;2022-11-09T16:58:15;39.25;;;14.52;;
62933;SDS011;49038;47.600;19.242;2022-11-09T17:01:17;28.33;;;12.20;;
62933;SDS011;49038;47.600;19.242;2022-11-09T17:04:24;19.48;;;9.10;;
62933;SDS011;49038;47.600;19.242;2022-11-09T17:07:27;14.48;;;7.75;;
62933;SDS011;49038;47.600;19.242;2022-11-09T17:10:30;22.08;;;9.75;;
62933;SDS011;49038;47.600;19.242;2022-11-09T17:13:32;21.98;;;9.48;;
62933;SDS011;49038;47.600;19.242;2022-11-09T17:16:34;24.42;;;9.98;;
62933;SDS011;49038;47.600;19.242;2022-11-09T17:19:37;24.65;;;11.90;;
62933;SDS011;49038;47.600;19.242;2022-11-09T17:22:39;31.02;;;10.95;;
62933;SDS011;49038;47.600;19.242;2022-11-09T17:28:57;24.17;;;10.93;;
62933;SDS011;49038;47.600;19.242;2022-11-09T17:32:00;29.10;;;11.48;;
62933;SDS011;49038;47.600;19.242;2022-11-09T17:35:04;29.10;;;10.18;;
62933;SDS011;49038;47.600;19.242;2022-11-09T17:38:06;26.15;;;10.52;;
62933;SDS011;49038;47.600;19.242;2022-11-09T17:41:09;25.52;;;11.18;;
62933;SDS011;49038;47.600;19.242;2022-11-09T17:44:16;22.25;;;10.13;;
62933;SDS011;49038;47.600;19.242;2022-11-09T17:47:19;18.15;;;8.93;;
62933;SDS011;49038;47.600;19.242;2022-11-09T17:50:21;24.00;;;10.07;;
62933;SDS011;49038;47.600;19.242;2022-11-09T17:53:23;18.85;;;9.23;;
62933;SDS011;49038;47.600;19.242;2022-11-09T17:56:26;24.17;;;9.90;;
62933;SDS011;49038;47.600;19.242;2022-11-09T17:59:29;26.27;;;11.00;;
62933;SDS011;49038;47.600;19.242;2022-11-09T18:02:32;25.58;;;10.68;;
62933;SDS011;49038;47.600;19.242;2022-11-09T18:05:38;26.40;;;10.75;;
62933;SDS011;49038;47.600;19.242;2022-11-09T18:08:41;22.40;;;9.80;;
62933;SDS011;49038;47.600;19.242;2022-11-09T18:11:45;29.42;;;10.63;;
62933;SDS011;49038;47.600;19.242;2022-11-09T18:14:47;27.95;;;10.57;;
62933;SDS011;49038;47.600;19.242;2022-11-09T18:17:50;27.02;;;11.45;;
62933;SDS011;49038;47.600;19.242;2022-11-09T18:20:52;24.70;;;10.70;;
62933;SDS011;49038;47.600;19.242;2022-11-09T18:23:55;37.97;;;16.33;;
62933;SDS011;49038;47.600;19.242;2022-11-09T18:26:58;42.05;;;18.08;;
62933;SDS011;49038;47.600;19.242;2022-11-09T18:30:01;26.05;;;11.98;;
62933;SDS011;49038;47.600;19.242;2022-11-09T18:33:04;29.23;;;12.18;;
62933;SDS011;49038;47.600;19.242;2022-11-09T18:36:11;28.60;;;10.32;;
62933;SDS011;49038;47.600;19.242;2022-11-09T18:39:17;34.67;;;13.88;;
62933;SDS011;49038;47.600;19.242;2022-11-09T18:42:21;31.70;;;14.35;;
62933;SDS011;49038;47.600;19.242;2022-11-09T18:45:23;38.40;;;16.60;;
62933;SDS011;49038;47.600;19.242;2022-11-09T18:48:26;34.72;;;13.40;;
62933;SDS011;49038;47.600;19.242;2022-11-09T18:51:29;29.65;;;13.62;;
62933;SDS011;49038;47.600;19.242;2022-11-09T18:54:31;29.83;;;13.35;;
62933;SDS011;49038;47.600;19.242;2022-11-09T18:57:33;58.10;;;20.75;;
62933;SDS011;49038;47.600;19.242;2022-11-09T19:00:36;49.80;;;18.55;;
62933;SDS011;49038;47.600;19.242;2022-11-09T19:03:38;42.13;;;15.68;;
62933;SDS011;49038;47.600;19.242;2022-11-09T19:06:41;35.30;;;15.27;;
62933;SDS011;49038;47.600;19.242;2022-11-09T19:09:43;38.20;;;15.35;;
62933;SDS011;49038;47.600;19.242;2022-11-09T19:12:46;33.55;;;13.62;;
62933;SDS011;49038;47.600;19.242;2022-11-09T19:15:48;42.92;;;15.75;;
62933;SDS011;49038;47.600;19.242;2022-11-09T19:18:56;53.72;;;14.98;;
62933;SDS011;49038;47.600;19.242;2022-11-09T19:21:59;45.28;;;13.82;;
62933;SDS011;49038;47.600;19.242;2022-11-09T19:25:01;29.83;;;10.85;;
62933;SDS011;49038;47.600;19.242;2022-11-09T19:28:04;30.20;;;10.75;;
62933;SDS011;49038;47.600;19.242;2022-11-09T19:31:07;32.38;;;10.65;;
62933;SDS011;49038;47.600;19.242;2022-11-09T19:34:14;42.85;;;13.23;;
62933;SDS011;49038;47.600;19.242;2022-11-09T19:37:18;41.15;;;11.63;;
62933;SDS011;49038;47.600;19.242;2022-11-09T19:40:20;41.33;;;13.35;;